Terminal Aerodrome Forecast
Issued by NWS

Home | Current Version | Previous Version | Text Only | Print | Product List | Glossary On
Versions: 1 2 3 4 5 6 7 8 9 10 11 12 13 14 15 16 17 18 19 20 21 22 23 24 25 26
000
FTUS43 KDLH 271100
TAFHIB
TAF
KHIB 271121Z 2712/2812 VRB03KT P6SM OVC008
     FM271900 17005KT P6SM BKN015 BKN150
     FM272300 15004KT P6SM SCT025 BKN080
     FM281000 14004KT P6SM BKN040 OVC070=

USA.gov is the U.S. government's official web portal to all federal, state and local government web resources and services.